sensor_id;sensor_type;location;lat;lon;timestamp;pressure;altitude;pressure_sealevel;temperature
34807;BMP180;18310;55.586;12.286;2022-09-17T00:02:03;99949.00;;;20.10
34807;BMP180;18310;55.586;12.286;2022-09-17T00:05:09;99946.00;;;20.00
34807;BMP180;18310;55.586;12.286;2022-09-17T00:08:13;99941.00;;;20.00
34807;BMP180;18310;55.586;12.286;2022-09-17T00:11:20;99945.00;;;19.90
34807;BMP180;18310;55.586;12.286;2022-09-17T00:14:23;99947.00;;;19.90
34807;BMP180;18310;55.586;12.286;2022-09-17T00:17:26;99941.00;;;19.80
34807;BMP180;18310;55.586;12.286;2022-09-17T00:20:30;99932.00;;;19.80
34807;BMP180;18310;55.586;12.286;2022-09-17T00:23:34;99942.00;;;19.80
34807;BMP180;18310;55.586;12.286;2022-09-17T00:26:37;99939.00;;;19.80
34807;BMP180;18310;55.586;12.286;2022-09-17T00:29:40;99947.00;;;19.70
34807;BMP180;18310;55.586;12.286;2022-09-17T00:32:43;99938.00;;;19.70
34807;BMP180;18310;55.586;12.286;2022-09-17T00:35:57;99934.00;;;19.70
34807;BMP180;18310;55.586;12.286;2022-09-17T00:39:01;99940.00;;;19.70
34807;BMP180;18310;55.586;12.286;2022-09-17T00:42:05;99944.00;;;19.70
34807;BMP180;18310;55.586;12.286;2022-09-17T00:45:12;99954.00;;;19.70
34807;BMP180;18310;55.586;12.286;2022-09-17T00:48:15;99953.00;;;19.70
34807;BMP180;18310;55.586;12.286;2022-09-17T00:51:26;99956.00;;;19.70
34807;BMP180;18310;55.586;12.286;2022-09-17T00:54:31;99963.00;;;19.70
34807;BMP180;18310;55.586;12.286;2022-09-17T00:57:35;99958.00;;;19.70
34807;BMP180;18310;55.586;12.286;2022-09-17T01:00:39;99966.00;;;19.70
34807;BMP180;18310;55.586;12.286;2022-09-17T01:03:42;99960.00;;;19.70
34807;BMP180;18310;55.586;12.286;2022-09-17T01:06:54;99954.00;;;19.70
34807;BMP180;18310;55.586;12.286;2022-09-17T01:10:18;99963.00;;;19.70
34807;BMP180;18310;55.586;12.286;2022-09-17T01:13:39;99962.00;;;19.70
34807;BMP180;18310;55.586;12.286;2022-09-17T01:16:54;99962.00;;;19.70
34807;BMP180;18310;55.586;12.286;2022-09-17T01:20:51;99958.00;;;19.70
34807;BMP180;18310;55.586;12.286;2022-09-17T01:24:44;99957.00;;;19.70
34807;BMP180;18310;55.586;12.286;2022-09-17T01:28:28;99956.00;;;19.70
34807;BMP180;18310;55.586;12.286;2022-09-17T01:31:42;99950.00;;;19.70
34807;BMP180;18310;55.586;12.286;2022-09-17T01:34:57;99958.00;;;19.70
34807;BMP180;18310;55.586;12.286;2022-09-17T01:38:12;99952.00;;;19.70
34807;BMP180;18310;55.586;12.286;2022-09-17T01:41:25;99950.00;;;19.70
34807;BMP180;18310;55.586;12.286;2022-09-17T01:44:36;99955.00;;;19.70
34807;BMP180;18310;55.586;12.286;2022-09-17T01:47:49;99957.00;;;19.70
34807;BMP180;18310;55.586;12.286;2022-09-17T01:50:59;99957.00;;;19.70
34807;BMP180;18310;55.586;12.286;2022-09-17T01:54:11;99964.00;;;19.80
34807;BMP180;18310;55.586;12.286;2022-09-17T01:57:20;99963.00;;;19.80
34807;BMP180;18310;55.586;12.286;2022-09-17T02:00:25;99958.00;;;19.90
34807;BMP180;18310;55.586;12.286;2022-09-17T02:03:36;99966.00;;;20.00
34807;BMP180;18310;55.586;12.286;2022-09-17T02:06:47;99957.00;;;20.10
34807;BMP180;18310;55.586;12.286;2022-09-17T02:09:58;99954.00;;;20.10
34807;BMP180;18310;55.586;12.286;2022-09-17T02:13:08;99959.00;;;20.20
34807;BMP180;18310;55.586;12.286;2022-09-17T02:16:16;99956.00;;;20.20
34807;BMP180;18310;55.586;12.286;2022-09-17T02:19:27;99968.00;;;20.30
34807;BMP180;18310;55.586;12.286;2022-09-17T02:22:40;99968.00;;;20.40
34807;BMP180;18310;55.586;12.286;2022-09-17T02:25:52;99971.00;;;20.40
34807;BMP180;18310;55.586;12.286;2022-09-17T02:29:05;99963.00;;;20.50
34807;BMP180;18310;55.586;12.286;2022-09-17T02:32:10;99963.00;;;20.40
34807;BMP180;18310;55.586;12.286;2022-09-17T02:35:15;99968.00;;;20.40
34807;BMP180;18310;55.586;12.286;2022-09-17T02:38:25;99966.00;;;20.40
34807;BMP180;18310;55.586;12.286;2022-09-17T02:41:44;99967.00;;;20.40
34807;BMP180;18310;55.586;12.286;2022-09-17T02:45:00;99969.00;;;20.30
34807;BMP180;18310;55.586;12.286;2022-09-17T02:48:25;99976.00;;;20.30
34807;BMP180;18310;55.586;12.286;2022-09-17T02:51:44;99972.00;;;20.30
34807;BMP180;18310;55.586;12.286;2022-09-17T02:55:00;99967.00;;;20.20
34807;BMP180;18310;55.586;12.286;2022-09-17T02:58:18;99968.00;;;20.20
34807;BMP180;18310;55.586;12.286;2022-09-17T03:01:33;99962.00;;;20.20
34807;BMP180;18310;55.586;12.286;2022-09-17T03:04:41;99968.00;;;20.20
34807;BMP180;18310;55.586;12.286;2022-09-17T03:07:46;99970.00;;;20.20
34807;BMP180;18310;55.586;12.286;2022-09-17T03:10:49;99976.00;;;20.10
34807;BMP180;18310;55.586;12.286;2022-09-17T03:13:52;99975.00;;;20.10
34807;BMP180;18310;55.586;12.286;2022-09-17T03:16:55;99969.00;;;20.10
34807;BMP180;18310;55.586;12.286;2022-09-17T03:19:59;99974.00;;;20.10
34807;BMP180;18310;55.586;12.286;2022-09-17T03:23:04;99968.00;;;20.00
34807;BMP180;18310;55.586;12.286;2022-09-17T03:26:08;99976.00;;;20.00
34807;BMP180;18310;55.586;12.286;2022-09-17T03:29:11;99967.00;;;20.00
34807;BMP180;18310;55.586;12.286;2022-09-17T03:32:14;99976.00;;;20.00
34807;BMP180;18310;55.586;12.286;2022-09-17T03:35:17;99979.00;;;20.00
34807;BMP180;18310;55.586;12.286;2022-09-17T03:38:22;99965.00;;;20.00
34807;BMP180;18310;55.586;12.286;2022-09-17T03:41:26;99969.00;;;20.00
34807;BMP180;18310;55.586;12.286;2022-09-17T03:44:29;99973.00;;;20.00
34807;BMP180;18310;55.586;12.286;2022-09-17T03:47:32;99965.00;;;20.00
34807;BMP180;18310;55.586;12.286;2022-09-17T03:50:35;99969.00;;;20.00
34807;BMP180;18310;55.586;12.286;2022-09-17T03:53:40;99968.00;;;20.00
34807;BMP180;18310;55.586;12.286;2022-09-17T03:56:43;99967.00;;;20.00
34807;BMP180;18310;55.586;12.286;2022-09-17T03:59:47;99970.00;;;20.00
34807;BMP180;18310;55.586;12.286;2022-09-17T04:02:50;99968.00;;;20.00
34807;BMP180;18310;55.586;12.286;2022-09-17T04:05:54;99975.00;;;19.90
34807;BMP180;18310;55.586;12.286;2022-09-17T04:08:58;99981.00;;;20.00
34807;BMP180;18310;55.586;12.286;2022-09-17T04:12:02;99982.00;;;20.00
34807;BMP180;18310;55.586;12.286;2022-09-17T04:15:07;99991.00;;;19.90
34807;BMP180;18310;55.586;12.286;2022-09-17T04:18:10;99981.00;;;19.90
34807;BMP180;18310;55.586;12.286;2022-09-17T04:21:14;99994.00;;;19.90
34807;BMP180;18310;55.586;12.286;2022-09-17T04:24:18;99996.00;;;19.90
34807;BMP180;18310;55.586;12.286;2022-09-17T04:27:21;100005.00;;;19.90
34807;BMP180;18310;55.586;12.286;2022-09-17T04:30:25;100020.00;;;19.90
34807;BMP180;18310;55.586;12.286;2022-09-17T04:33:28;100024.00;;;20.00
34807;BMP180;18310;55.586;12.286;2022-09-17T04:36:31;100012.00;;;20.00
34807;BMP180;18310;55.586;12.286;2022-09-17T04:39:35;100010.00;;;20.10
34807;BMP180;18310;55.586;12.286;2022-09-17T04:42:39;100018.00;;;20.20
34807;BMP180;18310;55.586;12.286;2022-09-17T04:45:45;100015.00;;;20.20
34807;BMP180;18310;55.586;12.286;2022-09-17T04:48:49;99995.00;;;20.30
34807;BMP180;18310;55.586;12.286;2022-09-17T04:51:52;100000.00;;;20.40
34807;BMP180;18310;55.586;12.286;2022-09-17T04:54:57;99995.00;;;20.50
34807;BMP180;18310;55.586;12.286;2022-09-17T04:58:00;100007.00;;;20.60
34807;BMP180;18310;55.586;12.286;2022-09-17T05:01:03;100008.00;;;20.60
34807;BMP180;18310;55.586;12.286;2022-09-17T05:04:07;100007.00;;;20.70
34807;BMP180;18310;55.586;12.286;2022-09-17T05:07:11;100013.00;;;20.70
34807;BMP180;18310;55.586;12.286;2022-09-17T05:10:18;100028.00;;;20.80
34807;BMP180;18310;55.586;12.286;2022-09-17T05:13:21;100032.00;;;20.90
34807;BMP180;18310;55.586;12.286;2022-09-17T05:16:25;100041.00;;;21.10
34807;BMP180;18310;55.586;12.286;2022-09-17T05:19:28;100040.00;;;21.20
34807;BMP180;18310;55.586;12.286;2022-09-17T05:22:31;100036.00;;;21.30
34807;BMP180;18310;55.586;12.286;2022-09-17T05:25:36;100047.00;;;21.40
34807;BMP180;18310;55.586;12.286;2022-09-17T05:28:39;100046.00;;;21.40
34807;BMP180;18310;55.586;12.286;2022-09-17T05:31:42;100038.00;;;21.50
34807;BMP180;18310;55.586;12.286;2022-09-17T05:34:45;100039.00;;;21.60
34807;BMP180;18310;55.586;12.286;2022-09-17T05:37:48;100039.00;;;21.70
34807;BMP180;18310;55.586;12.286;2022-09-17T05:40:53;100043.00;;;21.70
34807;BMP180;18310;55.586;12.286;2022-09-17T05:43:56;100041.00;;;21.80
34807;BMP180;18310;55.586;12.286;2022-09-17T05:46:59;100040.00;;;21.80
34807;BMP180;18310;55.586;12.286;2022-09-17T05:50:03;100039.00;;;21.80
34807;BMP180;18310;55.586;12.286;2022-09-17T05:53:09;100036.00;;;21.80
34807;BMP180;18310;55.586;12.286;2022-09-17T05:56:14;100038.00;;;21.80
34807;BMP180;18310;55.586;12.286;2022-09-17T05:59:17;100042.00;;;21.80
34807;BMP180;18310;55.586;12.286;2022-09-17T06:02:20;100041.00;;;21.90
34807;BMP180;18310;55.586;12.286;2022-09-17T06:05:25;100039.00;;;21.90
34807;BMP180;18310;55.586;12.286;2022-09-17T06:08:28;100046.00;;;21.90
34807;BMP180;18310;55.586;12.286;2022-09-17T06:11:33;100041.00;;;21.90
34807;BMP180;18310;55.586;12.286;2022-09-17T06:14:36;100052.00;;;21.80
34807;BMP180;18310;55.586;12.286;2022-09-17T06:17:40;100045.00;;;21.80
34807;BMP180;18310;55.586;12.286;2022-09-17T06:20:52;100050.00;;;21.80
34807;BMP180;18310;55.586;12.286;2022-09-17T06:23:56;100055.00;;;21.70
34807;BMP180;18310;55.586;12.286;2022-09-17T06:27:01;100048.00;;;21.70
34807;BMP180;18310;55.586;12.286;2022-09-17T06:30:06;100054.00;;;21.70
34807;BMP180;18310;55.586;12.286;2022-09-17T06:33:09;100060.00;;;21.60
34807;BMP180;18310;55.586;12.286;2022-09-17T06:36:12;100059.00;;;21.60
34807;BMP180;18310;55.586;12.286;2022-09-17T06:39:16;100060.00;;;21.60
34807;BMP180;18310;55.586;12.286;2022-09-17T06:42:20;100066.00;;;21.70
34807;BMP180;18310;55.586;12.286;2022-09-17T06:45:23;100075.00;;;21.90
34807;BMP180;18310;55.586;12.286;2022-09-17T06:48:28;100076.00;;;22.10
34807;BMP180;18310;55.586;12.286;2022-09-17T06:51:32;100066.00;;;22.50
34807;BMP180;18310;55.586;12.286;2022-09-17T06:54:35;100069.00;;;23.10
34807;BMP180;18310;55.586;12.286;2022-09-17T06:57:39;100077.00;;;23.90
34807;BMP180;18310;55.586;12.286;2022-09-17T07:00:42;100083.00;;;24.50
34807;BMP180;18310;55.586;12.286;2022-09-17T07:03:45;100087.00;;;25.20
34807;BMP180;18310;55.586;12.286;2022-09-17T07:06:50;100083.00;;;25.80
34807;BMP180;18310;55.586;12.286;2022-09-17T07:09:53;100087.00;;;26.40
34807;BMP180;18310;55.586;12.286;2022-09-17T07:12:57;100085.00;;;26.90
34807;BMP180;18310;55.586;12.286;2022-09-17T07:16:03;100095.00;;;27.10
34807;BMP180;18310;55.586;12.286;2022-09-17T07:19:07;100097.00;;;27.00
34807;BMP180;18310;55.586;12.286;2022-09-17T07:22:12;100095.00;;;26.80
34807;BMP180;18310;55.586;12.286;2022-09-17T07:25:15;100096.00;;;26.60
34807;BMP180;18310;55.586;12.286;2022-09-17T07:28:20;100103.00;;;26.40
34807;BMP180;18310;55.586;12.286;2022-09-17T07:31:23;100096.00;;;26.20
34807;BMP180;18310;55.586;12.286;2022-09-17T07:34:26;100103.00;;;26.00
34807;BMP180;18310;55.586;12.286;2022-09-17T07:37:30;100108.00;;;25.90
34807;BMP180;18310;55.586;12.286;2022-09-17T07:40:33;100110.00;;;25.70
34807;BMP180;18310;55.586;12.286;2022-09-17T07:43:38;100116.00;;;25.60
34807;BMP180;18310;55.586;12.286;2022-09-17T07:46:41;100116.00;;;25.50
34807;BMP180;18310;55.586;12.286;2022-09-17T07:49:44;100113.00;;;25.50
34807;BMP180;18310;55.586;12.286;2022-09-17T07:52:47;100120.00;;;25.40
34807;BMP180;18310;55.586;12.286;2022-09-17T07:55:52;100116.00;;;25.40
34807;BMP180;18310;55.586;12.286;2022-09-17T07:58:56;100111.00;;;25.40
34807;BMP180;18310;55.586;12.286;2022-09-17T08:01:59;100114.00;;;25.40
34807;BMP180;18310;55.586;12.286;2022-09-17T08:05:04;100117.00;;;25.40
34807;BMP180;18310;55.586;12.286;2022-09-17T08:08:07;100115.00;;;25.40
34807;BMP180;18310;55.586;12.286;2022-09-17T08:11:12;100114.00;;;25.40
34807;BMP180;18310;55.586;12.286;2022-09-17T08:14:26;100116.00;;;25.50
34807;BMP180;18310;55.586;12.286;2022-09-17T08:17:31;100117.00;;;25.60
34807;BMP180;18310;55.586;12.286;2022-09-17T08:20:34;100116.00;;;25.70
34807;BMP180;18310;55.586;12.286;2022-09-17T08:23:40;100124.00;;;25.80
34807;BMP180;18310;55.586;12.286;2022-09-17T08:26:43;100128.00;;;25.80
34807;BMP180;18310;55.586;12.286;2022-09-17T08:29:47;100135.00;;;25.80
34807;BMP180;18310;55.586;12.286;2022-09-17T08:32:54;100127.00;;;25.70
34807;BMP180;18310;55.586;12.286;2022-09-17T08:35:57;100115.00;;;25.70
34807;BMP180;18310;55.586;12.286;2022-09-17T08:39:01;100131.00;;;25.60
34807;BMP180;18310;55.586;12.286;2022-09-17T08:42:11;100129.00;;;25.50
34807;BMP180;18310;55.586;12.286;2022-09-17T08:45:21;100128.00;;;25.50
34807;BMP180;18310;55.586;12.286;2022-09-17T08:48:32;100133.00;;;25.50
34807;BMP180;18310;55.586;12.286;2022-09-17T08:51:48;100123.00;;;25.50
34807;BMP180;18310;55.586;12.286;2022-09-17T08:55:03;100132.00;;;25.50
34807;BMP180;18310;55.586;12.286;2022-09-17T08:58:40;100142.00;;;25.50
34807;BMP180;18310;55.586;12.286;2022-09-17T09:01:56;100140.00;;;25.50
34807;BMP180;18310;55.586;12.286;2022-09-17T09:05:10;100141.00;;;25.60
34807;BMP180;18310;55.586;12.286;2022-09-17T09:08:22;100144.00;;;25.60
34807;BMP180;18310;55.586;12.286;2022-09-17T09:11:29;100140.00;;;25.70
34807;BMP180;18310;55.586;12.286;2022-09-17T09:14:50;100140.00;;;25.70
34807;BMP180;18310;55.586;12.286;2022-09-17T09:18:08;100138.00;;;25.80
34807;BMP180;18310;55.586;12.286;2022-09-17T09:21:25;100138.00;;;25.80
34807;BMP180;18310;55.586;12.286;2022-09-17T09:24:40;100141.00;;;25.90
34807;BMP180;18310;55.586;12.286;2022-09-17T09:27:55;100152.00;;;25.90
34807;BMP180;18310;55.586;12.286;2022-09-17T09:31:19;100147.00;;;26.00
34807;BMP180;18310;55.586;12.286;2022-09-17T09:34:28;100145.00;;;26.00
34807;BMP180;18310;55.586;12.286;2022-09-17T09:37:38;100147.00;;;26.10
34807;BMP180;18310;55.586;12.286;2022-09-17T09:40:51;100144.00;;;26.10
34807;BMP180;18310;55.586;12.286;2022-09-17T09:44:01;100154.00;;;26.10
34807;BMP180;18310;55.586;12.286;2022-09-17T09:47:26;100148.00;;;26.20
34807;BMP180;18310;55.586;12.286;2022-09-17T09:50:43;100151.00;;;26.20
34807;BMP180;18310;55.586;12.286;2022-09-17T09:54:24;100148.00;;;26.30
34807;BMP180;18310;55.586;12.286;2022-09-17T09:57:40;100145.00;;;26.40
34807;BMP180;18310;55.586;12.286;2022-09-17T10:00:46;100155.00;;;26.30
34807;BMP180;18310;55.586;12.286;2022-09-17T10:03:52;100149.00;;;26.30
34807;BMP180;18310;55.586;12.286;2022-09-17T10:07:05;100157.00;;;26.40
34807;BMP180;18310;55.586;12.286;2022-09-17T10:10:09;100157.00;;;26.30
34807;BMP180;18310;55.586;12.286;2022-09-17T10:13:12;100150.00;;;26.30
34807;BMP180;18310;55.586;12.286;2022-09-17T10:16:20;100161.00;;;26.30
34807;BMP180;18310;55.586;12.286;2022-09-17T10:19:25;100154.00;;;26.30
34807;BMP180;18310;55.586;12.286;2022-09-17T10:22:33;100161.00;;;26.30
34807;BMP180;18310;55.586;12.286;2022-09-17T10:25:42;100154.00;;;26.40
34807;BMP180;18310;55.586;12.286;2022-09-17T10:28:51;100161.00;;;26.60
34807;BMP180;18310;55.586;12.286;2022-09-17T10:31:57;100163.00;;;26.70
34807;BMP180;18310;55.586;12.286;2022-09-17T10:35:05;100177.00;;;26.80
34807;BMP180;18310;55.586;12.286;2022-09-17T10:38:27;100160.00;;;26.90
34807;BMP180;18310;55.586;12.286;2022-09-17T10:41:31;100165.00;;;27.00
34807;BMP180;18310;55.586;12.286;2022-09-17T10:44:36;100159.00;;;27.10
34807;BMP180;18310;55.586;12.286;2022-09-17T10:47:41;100165.00;;;27.10
34807;BMP180;18310;55.586;12.286;2022-09-17T10:50:48;100173.00;;;27.00
34807;BMP180;18310;55.586;12.286;2022-09-17T10:54:07;100173.00;;;26.80
34807;BMP180;18310;55.586;12.286;2022-09-17T10:57:28;100179.00;;;26.70
34807;BMP180;18310;55.586;12.286;2022-09-17T11:00:44;100182.00;;;26.70
34807;BMP180;18310;55.586;12.286;2022-09-17T11:04:19;100182.00;;;26.60
34807;BMP180;18310;55.586;12.286;2022-09-17T11:07:40;100193.00;;;26.50
34807;BMP180;18310;55.586;12.286;2022-09-17T11:10:57;100196.00;;;26.40
34807;BMP180;18310;55.586;12.286;2022-09-17T11:14:22;100193.00;;;26.40
34807;BMP180;18310;55.586;12.286;2022-09-17T11:17:45;100194.00;;;26.50
34807;BMP180;18310;55.586;12.286;2022-09-17T11:25:07;100201.00;;;26.20
34807;BMP180;18310;55.586;12.286;2022-09-17T11:28:38;100196.00;;;26.20
34807;BMP180;18310;55.586;12.286;2022-09-17T11:31:54;100200.00;;;26.20
34807;BMP180;18310;55.586;12.286;2022-09-17T11:35:07;100200.00;;;26.30
34807;BMP180;18310;55.586;12.286;2022-09-17T11:38:19;100209.00;;;26.20
34807;BMP180;18310;55.586;12.286;2022-09-17T11:41:31;100212.00;;;26.20
34807;BMP180;18310;55.586;12.286;2022-09-17T11:44:45;100206.00;;;26.30
34807;BMP180;18310;55.586;12.286;2022-09-17T11:47:58;100207.00;;;26.30
34807;BMP180;18310;55.586;12.286;2022-09-17T11:51:17;100209.00;;;26.20
34807;BMP180;18310;55.586;12.286;2022-09-17T11:54:27;100210.00;;;26.20
34807;BMP180;18310;55.586;12.286;2022-09-17T11:57:38;100215.00;;;26.10
34807;BMP180;18310;55.586;12.286;2022-09-17T12:00:52;100197.00;;;26.10
34807;BMP180;18310;55.586;12.286;2022-09-17T12:04:00;100206.00;;;26.10
34807;BMP180;18310;55.586;12.286;2022-09-17T12:07:19;100212.00;;;26.10
34807;BMP180;18310;55.586;12.286;2022-09-17T12:10:40;100200.00;;;26.00
34807;BMP180;18310;55.586;12.286;2022-09-17T12:13:49;100204.00;;;25.80
34807;BMP180;18310;55.586;12.286;2022-09-17T12:16:58;100198.00;;;25.70
34807;BMP180;18310;55.586;12.286;2022-09-17T12:20:12;100204.00;;;25.60
34807;BMP180;18310;55.586;12.286;2022-09-17T12:23:34;100190.00;;;25.60
34807;BMP180;18310;55.586;12.286;2022-09-17T12:27:06;100200.00;;;25.60
34807;BMP180;18310;55.586;12.286;2022-09-17T12:30:12;100202.00;;;25.60
34807;BMP180;18310;55.586;12.286;2022-09-17T12:33:30;100212.00;;;25.60
34807;BMP180;18310;55.586;12.286;2022-09-17T12:36:47;100201.00;;;25.60
34807;BMP180;18310;55.586;12.286;2022-09-17T12:40:13;100202.00;;;25.70
34807;BMP180;18310;55.586;12.286;2022-09-17T12:43:50;100190.00;;;25.70
34807;BMP180;18310;55.586;12.286;2022-09-17T12:47:17;100214.00;;;25.80
34807;BMP180;18310;55.586;12.286;2022-09-17T12:50:39;100210.00;;;25.80
34807;BMP180;18310;55.586;12.286;2022-09-17T12:54:01;100208.00;;;25.70
34807;BMP180;18310;55.586;12.286;2022-09-17T12:57:20;100222.00;;;25.60
34807;BMP180;18310;55.586;12.286;2022-09-17T13:00:27;100215.00;;;25.60
34807;BMP180;18310;55.586;12.286;2022-09-17T13:03:35;100211.00;;;25.70
34807;BMP180;18310;55.586;12.286;2022-09-17T13:07:09;100215.00;;;25.80
34807;BMP180;18310;55.586;12.286;2022-09-17T13:10:49;100208.00;;;26.00
34807;BMP180;18310;55.586;12.286;2022-09-17T13:14:04;100212.00;;;26.10
34807;BMP180;18310;55.586;12.286;2022-09-17T13:17:21;100207.00;;;26.10
34807;BMP180;18310;55.586;12.286;2022-09-17T13:20:30;100202.00;;;26.00
34807;BMP180;18310;55.586;12.286;2022-09-17T13:23:40;100209.00;;;26.00
34807;BMP180;18310;55.586;12.286;2022-09-17T13:26:45;100217.00;;;26.00
34807;BMP180;18310;55.586;12.286;2022-09-17T13:30:01;100220.00;;;26.00
34807;BMP180;18310;55.586;12.286;2022-09-17T13:33:04;100219.00;;;25.90
34807;BMP180;18310;55.586;12.286;2022-09-17T13:36:36;100224.00;;;25.90
34807;BMP180;18310;55.586;12.286;2022-09-17T13:39:45;100227.00;;;25.80
34807;BMP180;18310;55.586;12.286;2022-09-17T13:42:53;100230.00;;;25.80
34807;BMP180;18310;55.586;12.286;2022-09-17T13:46:13;100229.00;;;25.80
34807;BMP180;18310;55.586;12.286;2022-09-17T13:49:19;100226.00;;;25.80
34807;BMP180;18310;55.586;12.286;2022-09-17T13:52:36;100229.00;;;25.80
34807;BMP180;18310;55.586;12.286;2022-09-17T13:55:46;100224.00;;;25.90
34807;BMP180;18310;55.586;12.286;2022-09-17T13:58:49;100230.00;;;26.00
34807;BMP180;18310;55.586;12.286;2022-09-17T14:02:01;100230.00;;;26.10
34807;BMP180;18310;55.586;12.286;2022-09-17T14:05:30;100231.00;;;26.30
34807;BMP180;18310;55.586;12.286;2022-09-17T14:08:47;100229.00;;;26.40
34807;BMP180;18310;55.586;12.286;2022-09-17T14:11:53;100234.00;;;26.50
34807;BMP180;18310;55.586;12.286;2022-09-17T14:14:56;100219.00;;;26.60
34807;BMP180;18310;55.586;12.286;2022-09-17T14:17:59;100237.00;;;26.70
34807;BMP180;18310;55.586;12.286;2022-09-17T14:21:17;100241.00;;;26.70
34807;BMP180;18310;55.586;12.286;2022-09-17T14:24:34;100245.00;;;26.70
34807;BMP180;18310;55.586;12.286;2022-09-17T14:27:51;100239.00;;;26.70
34807;BMP180;18310;55.586;12.286;2022-09-17T14:30:59;100240.00;;;26.70
34807;BMP180;18310;55.586;12.286;2022-09-17T14:34:05;100242.00;;;26.70
34807;BMP180;18310;55.586;12.286;2022-09-17T14:37:15;100237.00;;;26.60
34807;BMP180;18310;55.586;12.286;2022-09-17T14:40:22;100243.00;;;26.50
34807;BMP180;18310;55.586;12.286;2022-09-17T14:43:43;100233.00;;;26.50
34807;BMP180;18310;55.586;12.286;2022-09-17T14:46:55;100230.00;;;26.50
34807;BMP180;18310;55.586;12.286;2022-09-17T14:50:22;100235.00;;;26.60
34807;BMP180;18310;55.586;12.286;2022-09-17T14:53:26;100229.00;;;26.60
34807;BMP180;18310;55.586;12.286;2022-09-17T14:56:31;100233.00;;;26.70
34807;BMP180;18310;55.586;12.286;2022-09-17T14:59:47;100228.00;;;26.60
34807;BMP180;18310;55.586;12.286;2022-09-17T15:02:53;100222.00;;;26.60
34807;BMP180;18310;55.586;12.286;2022-09-17T15:06:00;100227.00;;;26.50
34807;BMP180;18310;55.586;12.286;2022-09-17T15:09:03;100223.00;;;26.50
34807;BMP180;18310;55.586;12.286;2022-09-17T15:12:07;100231.00;;;26.40
34807;BMP180;18310;55.586;12.286;2022-09-17T15:15:19;100223.00;;;26.40
34807;BMP180;18310;55.586;12.286;2022-09-17T15:18:33;100232.00;;;26.30
34807;BMP180;18310;55.586;12.286;2022-09-17T15:21:41;100230.00;;;26.30
34807;BMP180;18310;55.586;12.286;2022-09-17T15:24:51;100241.00;;;26.20
34807;BMP180;18310;55.586;12.286;2022-09-17T15:28:02;100239.00;;;26.10
34807;BMP180;18310;55.586;12.286;2022-09-17T15:31:16;100234.00;;;25.90
34807;BMP180;18310;55.586;12.286;2022-09-17T15:34:21;100240.00;;;25.90
34807;BMP180;18310;55.586;12.286;2022-09-17T15:37:25;100242.00;;;25.90
34807;BMP180;18310;55.586;12.286;2022-09-17T15:40:32;100238.00;;;25.80
34807;BMP180;18310;55.586;12.286;2022-09-17T15:43:38;100240.00;;;25.80
34807;BMP180;18310;55.586;12.286;2022-09-17T15:46:43;100238.00;;;25.70
34807;BMP180;18310;55.586;12.286;2022-09-17T15:50:15;100247.00;;;25.50
34807;BMP180;18310;55.586;12.286;2022-09-17T15:53:23;100238.00;;;25.50
34807;BMP180;18310;55.586;12.286;2022-09-17T15:56:29;100236.00;;;25.40
34807;BMP180;18310;55.586;12.286;2022-09-17T15:59:34;100228.00;;;25.30
34807;BMP180;18310;55.586;12.286;2022-09-17T16:02:38;100235.00;;;25.20
34807;BMP180;18310;55.586;12.286;2022-09-17T16:05:45;100244.00;;;25.10
34807;BMP180;18310;55.586;12.286;2022-09-17T16:08:51;100246.00;;;25.10
34807;BMP180;18310;55.586;12.286;2022-09-17T16:11:55;100242.00;;;25.00
34807;BMP180;18310;55.586;12.286;2022-09-17T16:14:59;100242.00;;;25.00
34807;BMP180;18310;55.586;12.286;2022-09-17T16:18:04;100245.00;;;24.90
34807;BMP180;18310;55.586;12.286;2022-09-17T16:21:09;100253.00;;;24.90
34807;BMP180;18310;55.586;12.286;2022-09-17T16:24:12;100244.00;;;24.80
34807;BMP180;18310;55.586;12.286;2022-09-17T16:27:19;100248.00;;;24.80
34807;BMP180;18310;55.586;12.286;2022-09-17T16:30:24;100248.00;;;24.70
34807;BMP180;18310;55.586;12.286;2022-09-17T16:33:29;100252.00;;;24.70
34807;BMP180;18310;55.586;12.286;2022-09-17T16:36:32;100258.00;;;24.60
34807;BMP180;18310;55.586;12.286;2022-09-17T16:39:35;100265.00;;;24.50
34807;BMP180;18310;55.586;12.286;2022-09-17T16:42:38;100264.00;;;24.50
34807;BMP180;18310;55.586;12.286;2022-09-17T16:45:42;100269.00;;;24.40
34807;BMP180;18310;55.586;12.286;2022-09-17T16:48:49;100274.00;;;24.40
34807;BMP180;18310;55.586;12.286;2022-09-17T16:51:52;100273.00;;;24.30
34807;BMP180;18310;55.586;12.286;2022-09-17T16:54:56;100277.00;;;24.20
34807;BMP180;18310;55.586;12.286;2022-09-17T16:57:59;100282.00;;;24.10
34807;BMP180;18310;55.586;12.286;2022-09-17T17:01:05;100282.00;;;24.10
34807;BMP180;18310;55.586;12.286;2022-09-17T17:04:10;100278.00;;;24.00
34807;BMP180;18310;55.586;12.286;2022-09-17T17:07:14;100279.00;;;23.90
34807;BMP180;18310;55.586;12.286;2022-09-17T17:10:18;100278.00;;;23.80
34807;BMP180;18310;55.586;12.286;2022-09-17T17:13:22;100279.00;;;23.70
34807;BMP180;18310;55.586;12.286;2022-09-17T17:16:25;100275.00;;;23.70
34807;BMP180;18310;55.586;12.286;2022-09-17T17:19:30;100278.00;;;23.60
34807;BMP180;18310;55.586;12.286;2022-09-17T17:22:36;100283.00;;;23.50
34807;BMP180;18310;55.586;12.286;2022-09-17T17:25:39;100271.00;;;23.40
34807;BMP180;18310;55.586;12.286;2022-09-17T17:28:42;100278.00;;;23.30
34807;BMP180;18310;55.586;12.286;2022-09-17T17:31:46;100277.00;;;23.20
34807;BMP180;18310;55.586;12.286;2022-09-17T17:34:51;100279.00;;;23.20
34807;BMP180;18310;55.586;12.286;2022-09-17T17:37:54;100275.00;;;23.20
34807;BMP180;18310;55.586;12.286;2022-09-17T17:41:03;100276.00;;;23.20
34807;BMP180;18310;55.586;12.286;2022-09-17T17:44:08;100270.00;;;23.10
34807;BMP180;18310;55.586;12.286;2022-09-17T17:47:13;100270.00;;;23.00